createdAt,value
2023-12-17T00:00:42.542Z,19.85
2023-12-17T00:01:46.457Z,19.42
2023-12-17T00:03:16.485Z,21.27
2023-12-17T00:04:12.251Z,25.15
2023-12-17T00:05:16.679Z,22.08
2023-12-17T00:06:20.832Z,19.33
2023-12-17T00:07:23.375Z,18.20
2023-12-17T00:08:27.221Z,24.08
2023-12-17T00:09:32.926Z,18.08
2023-12-17T00:10:36.620Z,22.30
2023-12-17T00:11:42.285Z,19.20
2023-12-17T00:12:45.931Z,29.50
2023-12-17T00:13:48.662Z,22.48
2023-12-17T00:14:51.213Z,23.67
2023-12-17T00:15:54.682Z,21.50
2023-12-17T00:16:57.601Z,17.67
2023-12-17T00:18:01.387Z,21.73
2023-12-17T00:19:06.949Z,23.02
2023-12-17T00:20:11.261Z,19.90
2023-12-17T00:21:15.247Z,18.52
2023-12-17T00:22:19.525Z,18.95
2023-12-17T00:23:22.193Z,22.73
2023-12-17T00:24:27.055Z,22.98
2023-12-17T00:25:29.368Z,19.17
2023-12-17T00:26:33.133Z,23.50
2023-12-17T00:27:36.035Z,20.27
2023-12-17T00:28:39.422Z,25.92
2023-12-17T00:29:42.165Z,17.65
2023-12-17T00:30:46.164Z,22.73
2023-12-17T00:31:49.350Z,20.80
2023-12-17T00:32:53.373Z,22.35
2023-12-17T00:33:57.288Z,20.52
2023-12-17T00:35:00.398Z,19.17
2023-12-17T00:36:03.149Z,18.15
2023-12-17T00:37:08.378Z,17.35
2023-12-17T00:38:11.163Z,18.77
2023-12-17T00:39:14.572Z,21.83
2023-12-17T00:40:18.305Z,18.05
2023-12-17T00:41:21.041Z,19.05
2023-12-17T00:42:50.068Z,18.58
2023-12-17T00:43:52.545Z,23.13
2023-12-17T00:44:58.934Z,16.48
2023-12-17T00:46:01.539Z,15.02
2023-12-17T00:47:05.492Z,20.02
2023-12-17T00:48:08.259Z,16.23
2023-12-17T00:49:11.817Z,19.30
2023-12-17T00:50:14.556Z,21.00
2023-12-17T00:51:18.025Z,17.05
2023-12-17T00:52:23.271Z,16.45
2023-12-17T00:53:25.856Z,20.05
2023-12-17T00:54:29.540Z,17.67
2023-12-17T00:55:32.451Z,19.58
2023-12-17T00:56:36.388Z,17.38
2023-12-17T00:57:39.246Z,18.70
2023-12-17T00:58:44.429Z,17.90
2023-12-17T00:59:50.161Z,20.20
2023-12-17T01:00:55.917Z,17.65
2023-12-17T01:01:59.038Z,19.90
2023-12-17T01:03:02.750Z,19.50
2023-12-17T01:04:05.626Z,17.00
2023-12-17T01:05:09.949Z,17.67
2023-12-17T01:06:12.215Z,19.05
2023-12-17T01:07:15.897Z,18.30
2023-12-17T01:08:19.791Z,15.27
2023-12-17T01:09:23.744Z,20.60
2023-12-17T01:10:35.521Z,17.83
2023-12-17T01:11:39.168Z,15.13
2023-12-17T01:12:41.966Z,15.90
2023-12-17T01:13:44.281Z,18.75
2023-12-17T01:14:48.286Z,24.50
2023-12-17T01:15:50.763Z,13.82
2023-12-17T01:16:55.298Z,17.00
2023-12-17T01:18:00.658Z,16.95
2023-12-17T01:19:05.157Z,16.60
2023-12-17T01:20:09.430Z,15.35
2023-12-17T01:21:16.502Z,20.23
2023-12-17T01:22:19.453Z,15.25
2023-12-17T01:23:29.047Z,19.88
2023-12-17T01:24:31.464Z,16.05
2023-12-17T01:25:41.271Z,19.55
2023-12-17T01:26:44.807Z,17.10
2023-12-17T01:27:47.141Z,18.95
2023-12-17T01:28:50.733Z,15.13
2023-12-17T01:29:55.152Z,14.73
2023-12-17T01:30:59.173Z,16.92
2023-12-17T01:32:01.977Z,19.50
2023-12-17T01:33:05.439Z,16.05
2023-12-17T01:34:09.444Z,16.10
2023-12-17T01:35:22.009Z,15.43
2023-12-17T01:36:29.424Z,18.80
2023-12-17T01:37:33.629Z,15.43
2023-12-17T01:38:37.892Z,17.38
2023-12-17T01:39:42.069Z,15.95
2023-12-17T01:40:44.992Z,15.23
2023-12-17T01:41:48.925Z,18.73
2023-12-17T01:42:52.814Z,19.90
2023-12-17T01:43:56.243Z,17.55
2023-12-17T01:44:59.440Z,19.00
2023-12-17T01:46:03.638Z,15.00
2023-12-17T01:47:06.495Z,19.52
2023-12-17T01:48:13.407Z,20.38
2023-12-17T01:49:15.970Z,17.20
2023-12-17T01:50:20.075Z,19.25
2023-12-17T01:51:23.454Z,15.27
2023-12-17T01:52:27.105Z,19.08
2023-12-17T01:53:29.638Z,15.75
2023-12-17T01:54:33.794Z,18.45
2023-12-17T01:55:37.634Z,16.15
2023-12-17T01:56:39.936Z,16.42
2023-12-17T01:57:43.411Z,16.77
2023-12-17T01:58:46.145Z,19.58
2023-12-17T01:59:50.316Z,14.25
2023-12-17T02:00:53.105Z,16.85
2023-12-17T02:01:56.511Z,17.67
2023-12-17T02:02:59.658Z,14.93
2023-12-17T02:04:02.532Z,16.95
2023-12-17T02:05:07.705Z,16.58
2023-12-17T02:06:10.779Z,17.60
2023-12-17T02:07:14.320Z,15.27
2023-12-17T02:08:16.816Z,19.88
2023-12-17T02:09:19.843Z,19.25
2023-12-17T02:10:25.189Z,20.63
2023-12-17T02:11:28.153Z,21.95
2023-12-17T02:12:31.586Z,16.05
2023-12-17T02:13:34.508Z,20.45
2023-12-17T02:14:38.083Z,16.73
2023-12-17T02:15:43.294Z,17.52
2023-12-17T02:16:46.560Z,16.73
2023-12-17T02:17:49.164Z,17.58
2023-12-17T02:18:52.593Z,18.58
2023-12-17T02:19:55.271Z,14.88
2023-12-17T02:20:59.812Z,18.40
2023-12-17T02:22:02.733Z,18.25
2023-12-17T02:23:08.801Z,20.80
2023-12-17T02:24:12.738Z,16.35
2023-12-17T02:25:16.210Z,14.60
2023-12-17T02:26:19.030Z,16.00
2023-12-17T02:29:07.303Z,19.98
2023-12-17T02:30:10.974Z,17.83
2023-12-17T02:31:26.021Z,17.13
2023-12-17T02:32:28.838Z,15.38
2023-12-17T02:33:32.786Z,17.30
2023-12-17T02:34:35.732Z,17.40
2023-12-17T02:35:39.425Z,17.38
2023-12-17T02:36:43.909Z,15.63
2023-12-17T02:37:47.418Z,14.90
2023-12-17T02:38:51.556Z,17.23
2023-12-17T02:39:55.084Z,15.40
2023-12-17T02:40:57.409Z,13.48
2023-12-17T02:41:59.961Z,15.35
2023-12-17T02:43:06.464Z,21.08
2023-12-17T02:44:08.980Z,14.00
2023-12-17T02:45:12.776Z,16.25
2023-12-17T02:46:16.058Z,14.45
2023-12-17T02:47:20.236Z,15.05
2023-12-17T02:48:22.954Z,13.38
2023-12-17T02:49:27.088Z,14.00
2023-12-17T02:50:29.985Z,16.05
2023-12-17T02:51:33.526Z,16.63
2023-12-17T02:52:35.887Z,16.98
2023-12-17T02:53:39.700Z,13.88
2023-12-17T02:54:43.657Z,18.33
2023-12-17T02:55:47.334Z,18.15
2023-12-17T02:56:49.944Z,18.13
2023-12-17T02:57:53.374Z,18.75
2023-12-17T02:58:55.593Z,16.50
2023-12-17T02:59:58.996Z,17.67
2023-12-17T03:01:01.266Z,21.35
2023-12-17T03:02:04.754Z,17.73
2023-12-17T03:03:07.273Z,20.23
2023-12-17T03:04:11.154Z,17.13
2023-12-17T03:05:16.556Z,22.08
2023-12-17T03:06:21.471Z,17.67
2023-12-17T03:07:26.977Z,17.25
2023-12-17T03:08:30.240Z,19.02
2023-12-17T03:09:32.434Z,19.10
2023-12-17T03:10:39.606Z,22.08
2023-12-17T03:11:42.141Z,16.73
2023-12-17T03:12:45.334Z,22.90
2023-12-17T03:13:47.756Z,20.17
2023-12-17T03:14:51.529Z,21.08
2023-12-17T03:15:54.037Z,23.40
2023-12-17T03:16:57.476Z,18.77
2023-12-17T03:18:01.198Z,16.73
2023-12-17T03:19:03.741Z,19.05
2023-12-17T03:20:09.344Z,20.83
2023-12-17T03:21:13.787Z,26.63
2023-12-17T03:22:19.922Z,19.25
2023-12-17T03:23:22.405Z,24.48
2023-12-17T03:24:26.222Z,23.38
2023-12-17T03:25:28.462Z,19.83
2023-12-17T03:26:32.933Z,22.30
2023-12-17T03:27:35.337Z,19.35
2023-12-17T03:28:39.018Z,21.35
2023-12-17T03:29:41.339Z,19.65
2023-12-17T03:30:43.924Z,19.75
2023-12-17T03:31:47.068Z,20.90
2023-12-17T03:32:49.914Z,19.92
2023-12-17T03:33:53.566Z,20.17
2023-12-17T03:34:55.843Z,26.40
2023-12-17T03:35:59.361Z,18.63
2023-12-17T03:37:01.516Z,19.73
2023-12-17T03:38:05.467Z,20.30
2023-12-17T03:39:09.193Z,19.60
2023-12-17T03:40:14.680Z,21.80
2023-12-17T03:41:23.641Z,20.58
2023-12-17T03:42:28.578Z,22.90
2023-12-17T03:43:31.313Z,18.20
2023-12-17T03:44:34.869Z,23.63
2023-12-17T03:45:37.339Z,19.73
2023-12-17T03:46:40.554Z,20.25
2023-12-17T03:47:46.271Z,19.98
2023-12-17T03:48:50.113Z,24.15
2023-12-17T03:49:52.726Z,20.95
2023-12-17T03:50:55.951Z,23.80
2023-12-17T03:51:58.177Z,20.38
2023-12-17T03:53:00.647Z,23.38
2023-12-17T03:54:04.072Z,19.77
2023-12-17T03:55:07.068Z,22.83
2023-12-17T03:56:11.283Z,18.75
2023-12-17T03:57:13.407Z,23.63
2023-12-17T03:58:18.209Z,22.73
2023-12-17T03:59:20.645Z,21.15
2023-12-17T04:00:25.717Z,21.13
2023-12-17T04:01:28.039Z,21.15
2023-12-17T04:02:32.283Z,24.90
2023-12-17T04:03:35.703Z,23.45
2023-12-17T04:04:39.122Z,20.88
2023-12-17T04:05:41.787Z,19.58
2023-12-17T04:06:47.737Z,22.02
2023-12-17T04:07:50.196Z,18.33
2023-12-17T04:08:55.744Z,18.98
2023-12-17T04:09:59.582Z,20.05
2023-12-17T04:11:03.691Z,19.85
2023-12-17T04:12:07.082Z,22.83
2023-12-17T04:13:09.867Z,22.92
2023-12-17T04:14:14.777Z,20.98
2023-12-17T04:15:17.211Z,22.23
2023-12-17T04:16:19.800Z,25.15
2023-12-17T04:17:23.528Z,22.05
2023-12-17T04:18:26.255Z,20.20
2023-12-17T04:19:29.620Z,19.73
2023-12-17T04:20:32.151Z,22.58
2023-12-17T04:21:36.118Z,20.65
2023-12-17T04:22:38.815Z,20.42
2023-12-17T04:23:42.588Z,25.42
2023-12-17T04:24:45.030Z,22.38
2023-12-17T04:25:48.809Z,21.65
2023-12-17T04:26:51.786Z,22.65
2023-12-17T04:27:55.464Z,23.90
2023-12-17T04:28:59.026Z,23.73
2023-12-17T04:30:04.012Z,20.58
2023-12-17T04:31:07.028Z,23.17
2023-12-17T04:32:10.970Z,21.35
2023-12-17T04:33:14.130Z,22.45
2023-12-17T04:34:18.028Z,21.85
2023-12-17T04:35:21.018Z,20.83
2023-12-17T04:36:24.780Z,21.52
2023-12-17T04:37:27.480Z,22.40
2023-12-17T04:38:30.941Z,22.55
2023-12-17T04:39:33.401Z,18.77
2023-12-17T04:40:36.894Z,26.70
2023-12-17T04:41:39.809Z,25.08
2023-12-17T04:42:43.046Z,22.65
2023-12-17T04:43:45.431Z,27.95
2023-12-17T04:44:49.135Z,19.33
2023-12-17T04:45:52.616Z,20.70
2023-12-17T04:46:57.514Z,20.88
2023-12-17T04:48:01.970Z,19.55
2023-12-17T04:49:05.789Z,25.45
2023-12-17T04:50:09.303Z,18.75
2023-12-17T04:51:12.762Z,20.27
2023-12-17T04:52:15.029Z,20.70
2023-12-17T04:53:21.880Z,21.27
2023-12-17T04:54:25.279Z,22.45
2023-12-17T04:55:29.008Z,23.20
2023-12-17T04:56:31.713Z,21.77
2023-12-17T04:57:35.281Z,23.23
2023-12-17T04:58:37.461Z,20.88
2023-12-17T04:59:42.833Z,22.65
2023-12-17T05:00:45.394Z,23.92
2023-12-17T05:01:50.472Z,20.95
2023-12-17T05:02:53.243Z,26.75
2023-12-17T05:03:57.239Z,19.88
2023-12-17T05:04:59.989Z,17.75
2023-12-17T05:06:04.499Z,20.15
2023-12-17T05:07:07.901Z,25.65
2023-12-17T05:08:11.017Z,24.92
2023-12-17T05:09:15.316Z,22.60
2023-12-17T05:10:21.515Z,20.48
2023-12-17T05:11:25.472Z,21.25
2023-12-17T05:12:43.596Z,21.35
2023-12-17T05:13:48.724Z,20.42
2023-12-17T05:14:52.375Z,22.83
2023-12-17T05:15:56.051Z,19.25
2023-12-17T05:17:00.102Z,20.58
2023-12-17T05:18:04.181Z,16.25
2023-12-17T05:19:07.322Z,18.48
2023-12-17T05:20:11.624Z,21.05
2023-12-17T05:21:14.468Z,20.20
2023-12-17T05:22:19.123Z,19.42
2023-12-17T05:23:21.616Z,18.17
2023-12-17T05:24:24.058Z,26.25
2023-12-17T05:25:27.740Z,21.60
2023-12-17T05:26:30.391Z,20.48
2023-12-17T05:27:32.933Z,20.83
2023-12-17T05:28:38.831Z,20.48
2023-12-17T05:29:42.020Z,16.95
2023-12-17T05:30:48.144Z,22.55
2023-12-17T05:31:51.432Z,19.38
2023-12-17T05:32:57.164Z,17.42
2023-12-17T05:33:59.925Z,16.40
2023-12-17T05:35:06.865Z,17.85
2023-12-17T05:36:10.266Z,20.73
2023-12-17T05:37:14.524Z,20.52
2023-12-17T05:38:19.801Z,21.10
2023-12-17T05:39:23.687Z,21.77
2023-12-17T05:40:26.239Z,18.58
2023-12-17T05:41:29.708Z,22.40
2023-12-17T05:42:32.949Z,19.05
2023-12-17T05:43:37.813Z,19.10
2023-12-17T05:44:40.710Z,19.45
2023-12-17T05:45:50.953Z,21.60
2023-12-17T05:47:00.747Z,15.70
2023-12-17T05:48:06.161Z,18.05
2023-12-17T05:49:08.785Z,21.42
2023-12-17T05:50:12.562Z,18.92
2023-12-17T05:51:15.696Z,15.43
2023-12-17T05:52:19.414Z,20.98
2023-12-17T05:53:27.568Z,22.10
2023-12-17T05:54:36.787Z,22.70
2023-12-17T05:55:39.231Z,18.08
2023-12-17T05:56:43.499Z,20.73
2023-12-17T05:57:47.723Z,22.85
2023-12-17T05:58:51.004Z,18.40
2023-12-17T05:59:53.800Z,18.88
2023-12-17T06:00:57.700Z,22.40
2023-12-17T06:02:00.516Z,21.27
2023-12-17T06:03:05.170Z,20.38
2023-12-17T06:04:07.815Z,20.77
2023-12-17T06:05:11.602Z,18.75
2023-12-17T06:06:14.141Z,25.77
2023-12-17T06:07:18.430Z,21.23
2023-12-17T06:08:20.541Z,19.85
2023-12-17T06:09:24.263Z,17.13
2023-12-17T06:10:26.426Z,17.58
2023-12-17T06:11:29.535Z,20.27
2023-12-17T06:12:31.939Z,19.92
2023-12-17T06:13:36.001Z,21.30
2023-12-17T06:14:38.199Z,20.67
2023-12-17T06:15:41.456Z,20.42
2023-12-17T06:16:43.617Z,23.85
2023-12-17T06:17:47.349Z,18.90
2023-12-17T06:18:51.428Z,21.70
2023-12-17T06:19:57.146Z,22.60
2023-12-17T06:21:01.604Z,21.48
2023-12-17T06:22:04.905Z,28.40
2023-12-17T06:23:07.334Z,21.40
2023-12-17T06:24:10.474Z,30.95
2023-12-17T06:25:12.688Z,27.25
2023-12-17T06:26:16.630Z,19.23
2023-12-17T06:27:19.374Z,27.15
2023-12-17T06:28:22.201Z,22.27
2023-12-17T06:29:25.519Z,25.65
2023-12-17T06:30:27.926Z,24.60
2023-12-17T06:31:31.172Z,26.88
2023-12-17T06:32:33.600Z,25.38
2023-12-17T06:33:37.148Z,23.80
2023-12-17T06:34:40.731Z,22.05
2023-12-17T06:35:44.239Z,22.17
2023-12-17T06:36:46.369Z,22.63
2023-12-17T06:37:49.471Z,22.30
2023-12-17T06:38:51.725Z,22.58
2023-12-17T06:39:54.891Z,28.60
2023-12-17T06:40:57.123Z,24.35
2023-12-17T06:42:00.327Z,22.10
2023-12-17T06:43:02.529Z,26.20
2023-12-17T06:44:05.895Z,21.85
2023-12-17T06:45:11.272Z,22.48
2023-12-17T06:46:18.090Z,22.80
2023-12-17T06:47:26.361Z,24.75
2023-12-17T06:48:31.985Z,24.13
2023-12-17T06:49:34.389Z,32.92
2023-12-17T06:50:38.948Z,67.30
2023-12-17T06:51:41.477Z,32.92
2023-12-17T06:52:44.748Z,33.67
2023-12-17T06:53:47.975Z,27.13
2023-12-17T06:54:51.923Z,24.90
2023-12-17T06:55:54.029Z,26.15
2023-12-17T06:56:57.196Z,25.02
2023-12-17T06:57:59.440Z,26.70
2023-12-17T06:59:03.188Z,27.70
2023-12-17T07:00:07.588Z,29.55
2023-12-17T07:01:11.721Z,26.63
2023-12-17T07:02:13.885Z,21.38
2023-12-17T07:03:19.567Z,23.40
2023-12-17T07:04:21.964Z,22.98
2023-12-17T07:05:25.138Z,23.60
2023-12-17T07:06:29.118Z,23.23
2023-12-17T07:07:32.441Z,24.10
2023-12-17T07:08:34.756Z,19.90
2023-12-17T07:09:37.912Z,22.85
2023-12-17T07:10:40.166Z,22.40
2023-12-17T07:11:43.327Z,23.15
2023-12-17T07:12:45.444Z,23.73
2023-12-17T07:13:50.332Z,20.98
2023-12-17T07:14:52.744Z,22.48
2023-12-17T07:15:55.836Z,21.10
2023-12-17T07:16:59.712Z,21.20
2023-12-17T07:18:03.295Z,23.13
2023-12-17T07:19:05.621Z,19.83
2023-12-17T07:20:10.043Z,20.92
2023-12-17T07:21:12.178Z,22.98
2023-12-17T07:22:17.931Z,18.48
2023-12-17T07:23:23.305Z,23.70
2023-12-17T07:24:27.443Z,23.38
2023-12-17T07:25:29.609Z,21.35
2023-12-17T07:26:32.674Z,22.02
2023-12-17T07:27:34.708Z,23.38
2023-12-17T07:28:38.622Z,25.85
2023-12-17T07:29:40.752Z,26.13
2023-12-17T07:30:44.013Z,23.40
2023-12-17T07:31:46.192Z,26.67
2023-12-17T07:32:49.472Z,33.08
2023-12-17T07:33:51.932Z,26.33
2023-12-17T07:34:54.297Z,29.20
2023-12-17T07:35:57.655Z,25.52
2023-12-17T07:37:00.835Z,26.15
2023-12-17T07:38:05.357Z,24.63
2023-12-17T07:39:07.771Z,23.33
2023-12-17T07:40:11.577Z,21.35
2023-12-17T07:41:14.001Z,26.08
2023-12-17T07:42:17.190Z,23.40
2023-12-17T07:43:19.337Z,23.65
2023-12-17T07:44:22.440Z,25.40
2023-12-17T07:45:24.614Z,21.27
2023-12-17T07:46:27.749Z,21.42
2023-12-17T07:47:31.833Z,21.95
2023-12-17T07:48:35.676Z,22.95
2023-12-17T07:49:38.040Z,24.50
2023-12-17T07:50:42.127Z,22.70
2023-12-17T07:51:45.583Z,26.63
2023-12-17T07:52:48.706Z,26.35
2023-12-17T07:53:52.276Z,27.48
2023-12-17T07:54:55.844Z,25.55
2023-12-17T07:55:58.932Z,22.17
2023-12-17T07:57:02.158Z,21.20
2023-12-17T07:58:04.384Z,22.45
2023-12-17T07:59:07.487Z,19.25
2023-12-17T08:00:13.029Z,23.60
2023-12-17T08:01:19.774Z,21.10
2023-12-17T08:02:22.844Z,23.25
2023-12-17T08:03:26.274Z,23.52
2023-12-17T08:04:28.697Z,21.90
2023-12-17T08:05:31.983Z,21.60
2023-12-17T08:06:37.043Z,22.52
2023-12-17T08:07:42.976Z,21.20
2023-12-17T08:08:45.330Z,22.80
2023-12-17T08:09:50.007Z,21.15
2023-12-17T08:10:52.137Z,21.30
2023-12-17T08:11:55.620Z,21.00
2023-12-17T08:12:57.773Z,23.08
2023-12-17T08:14:00.899Z,19.80
2023-12-17T08:15:03.362Z,20.90
2023-12-17T08:16:07.526Z,19.95
2023-12-17T08:17:09.975Z,20.17
2023-12-17T08:18:13.444Z,16.45
2023-12-17T08:19:15.629Z,16.40
2023-12-17T08:20:20.030Z,19.38
2023-12-17T08:21:22.552Z,22.05
2023-12-17T08:22:26.002Z,23.63
2023-12-17T08:23:28.309Z,20.15
2023-12-17T08:24:31.392Z,23.73
2023-12-17T08:25:39.432Z,27.98
2023-12-17T08:26:42.925Z,26.02
2023-12-17T08:27:45.009Z,24.13
2023-12-17T08:28:48.253Z,19.42
2023-12-17T08:29:52.079Z,25.75
2023-12-17T08:30:55.517Z,20.13
2023-12-17T08:31:58.850Z,20.15
2023-12-17T08:33:01.027Z,18.63
2023-12-17T08:34:04.534Z,19.10
2023-12-17T08:35:07.771Z,18.30
2023-12-17T08:36:12.242Z,28.50
2023-12-17T08:37:14.462Z,23.20
2023-12-17T08:38:17.543Z,21.15
2023-12-17T08:39:22.145Z,20.73
2023-12-17T08:40:25.273Z,25.00
2023-12-17T08:41:32.305Z,31.30
2023-12-17T08:42:35.450Z,36.63
2023-12-17T08:43:37.469Z,35.45
2023-12-17T08:44:39.527Z,34.55
2023-12-17T08:45:42.608Z,54.80
2023-12-17T08:46:44.776Z,42.28
2023-12-17T08:47:48.073Z,30.42
2023-12-17T08:48:50.387Z,21.80
2023-12-17T08:49:54.594Z,21.45
2023-12-17T08:50:57.016Z,17.25
2023-12-17T08:52:00.167Z,17.98
2023-12-17T08:53:03.054Z,23.10
2023-12-17T08:54:06.424Z,19.67
2023-12-17T08:55:10.416Z,19.13
2023-12-17T08:56:13.675Z,18.90
2023-12-17T08:57:17.233Z,17.60
2023-12-17T08:58:20.418Z,16.10
2023-12-17T08:59:22.948Z,18.30
2023-12-17T09:00:26.730Z,19.52
2023-12-17T09:01:28.848Z,19.90
2023-12-17T09:02:30.948Z,20.98
2023-12-17T09:03:34.246Z,18.20
2023-12-17T09:04:36.459Z,21.13
2023-12-17T09:05:39.927Z,20.75
2023-12-17T09:06:43.814Z,18.70
2023-12-17T09:07:46.898Z,17.55
2023-12-17T09:08:49.020Z,19.17
2023-12-17T09:09:52.108Z,18.63
2023-12-17T09:10:54.334Z,18.48
2023-12-17T09:11:57.404Z,19.38
2023-12-17T09:13:00.899Z,19.73
2023-12-17T09:14:04.110Z,15.32
2023-12-17T09:15:07.099Z,17.63
2023-12-17T09:16:09.359Z,17.13
2023-12-17T09:17:12.531Z,17.63
2023-12-17T09:18:14.940Z,15.70
2023-12-17T09:19:18.515Z,17.58
2023-12-17T09:20:20.957Z,19.00
2023-12-17T09:21:23.070Z,17.08
2023-12-17T09:22:27.156Z,15.75
2023-12-17T09:23:29.268Z,16.67
2023-12-17T09:24:32.625Z,17.40
2023-12-17T09:25:34.784Z,18.00
2023-12-17T09:26:38.252Z,19.30
2023-12-17T09:27:40.950Z,16.70
2023-12-17T09:28:45.851Z,19.65
2023-12-17T09:29:48.093Z,18.38
2023-12-17T09:30:51.353Z,15.73
2023-12-17T09:31:53.581Z,20.27
2023-12-17T09:32:56.761Z,18.15
2023-12-17T09:33:59.157Z,15.75
2023-12-17T09:35:02.418Z,18.15
2023-12-17T09:36:05.173Z,18.55
2023-12-17T09:37:08.318Z,18.08
2023-12-17T09:38:12.681Z,14.63
2023-12-17T09:39:16.347Z,22.33
2023-12-17T09:40:19.236Z,18.60
2023-12-17T09:41:21.535Z,21.35
2023-12-17T09:42:25.777Z,18.38
2023-12-17T09:43:27.907Z,17.27
2023-12-17T09:44:32.448Z,17.45
2023-12-17T09:45:34.661Z,14.77
2023-12-17T09:46:37.067Z,16.02
2023-12-17T09:47:40.844Z,18.65
2023-12-17T09:48:44.983Z,17.58
2023-12-17T09:49:49.840Z,16.92
2023-12-17T09:50:52.015Z,17.25
2023-12-17T09:52:02.828Z,17.73
2023-12-17T09:53:04.890Z,18.95
2023-12-17T09:54:07.979Z,23.27
2023-12-17T09:55:11.516Z,16.25
2023-12-17T09:56:14.899Z,21.33
2023-12-17T09:57:18.329Z,18.40
2023-12-17T09:58:21.508Z,16.80
2023-12-17T09:59:24.284Z,20.15
2023-12-17T10:00:27.874Z,21.48
2023-12-17T10:01:31.333Z,33.03
2023-12-17T10:02:39.053Z,28.70
2023-12-17T10:03:43.325Z,28.67
2023-12-17T10:04:45.489Z,26.15
2023-12-17T10:05:52.967Z,18.65
2023-12-17T10:06:55.271Z,21.73
2023-12-17T10:07:57.395Z,16.60
2023-12-17T10:09:00.460Z,19.70
2023-12-17T10:10:02.519Z,16.48
2023-12-17T10:11:06.312Z,18.75
2023-12-17T10:12:09.214Z,18.35
2023-12-17T10:13:13.633Z,22.25
2023-12-17T10:14:22.805Z,17.00
2023-12-17T10:15:26.054Z,17.65
2023-12-17T10:16:29.691Z,17.05
2023-12-17T10:17:32.984Z,18.33
2023-12-17T10:18:35.645Z,17.40
2023-12-17T10:19:38.866Z,21.33
2023-12-17T10:20:41.050Z,22.77
2023-12-17T10:21:43.207Z,17.27
2023-12-17T10:22:59.338Z,20.80
2023-12-17T10:24:01.476Z,19.17
2023-12-17T10:25:05.388Z,18.23
2023-12-17T10:26:07.497Z,16.88
2023-12-17T10:27:17.951Z,17.33
2023-12-17T10:28:20.318Z,20.17
2023-12-17T10:29:23.689Z,15.57
2023-12-17T10:30:30.182Z,17.63
2023-12-17T10:31:35.230Z,16.77
2023-12-17T10:32:37.351Z,14.88
2023-12-17T10:33:51.305Z,14.60
2023-12-17T10:34:54.774Z,14.95
2023-12-17T10:35:58.452Z,17.75
2023-12-17T10:37:02.202Z,15.60
2023-12-17T10:38:07.006Z,15.20
2023-12-17T10:39:10.070Z,17.15
2023-12-17T10:40:13.692Z,16.73
2023-12-17T10:41:16.799Z,12.75
2023-12-17T10:42:21.246Z,12.95
2023-12-17T10:43:23.776Z,16.10
2023-12-17T10:44:27.154Z,16.23
2023-12-17T10:45:30.413Z,15.18
2023-12-17T10:46:36.490Z,15.85
2023-12-17T10:47:40.382Z,16.92
2023-12-17T10:48:48.458Z,17.85
2023-12-17T10:49:52.776Z,16.10
2023-12-17T10:50:57.298Z,13.25
2023-12-17T10:52:00.718Z,14.23
2023-12-17T10:53:03.912Z,15.45
2023-12-17T10:54:06.603Z,14.63
2023-12-17T10:55:09.005Z,16.30
2023-12-17T10:56:13.039Z,18.75
2023-12-17T10:57:18.191Z,19.58
2023-12-17T10:58:23.217Z,16.75
2023-12-17T10:59:35.374Z,16.38
2023-12-17T11:03:50.379Z,15.85
2023-12-17T11:04:52.801Z,21.25
2023-12-17T11:05:57.472Z,22.30
2023-12-17T11:07:00.123Z,28.13
2023-12-17T11:08:03.932Z,21.58
2023-12-17T11:09:06.493Z,26.52
2023-12-17T11:10:11.744Z,21.95
2023-12-17T11:11:15.141Z,31.05
2023-12-17T11:12:18.180Z,20.17
2023-12-17T11:13:23.923Z,16.40
2023-12-17T11:14:27.239Z,25.20
2023-12-17T11:15:29.473Z,20.92
2023-12-17T11:16:32.708Z,21.38
2023-12-17T11:17:35.107Z,19.58
2023-12-17T11:18:44.852Z,18.52
2023-12-17T11:19:58.655Z,18.48
2023-12-17T11:21:01.855Z,18.85
2023-12-17T11:22:04.031Z,16.75
2023-12-17T11:23:07.313Z,21.55
2023-12-17T11:24:09.872Z,18.77
2023-12-17T11:25:14.179Z,20.52
2023-12-17T11:26:16.850Z,21.30
2023-12-17T11:27:21.027Z,19.80
2023-12-17T11:28:27.417Z,17.80
2023-12-17T11:29:33.730Z,19.77
2023-12-17T11:30:39.457Z,19.52
2023-12-17T11:31:41.917Z,18.95
2023-12-17T11:32:45.536Z,18.10
2023-12-17T11:33:48.467Z,19.90
2023-12-17T11:34:52.332Z,16.45
2023-12-17T11:35:56.392Z,20.33
2023-12-17T11:37:00.339Z,18.83
2023-12-17T11:38:04.393Z,24.35
2023-12-17T11:39:10.079Z,19.65
2023-12-17T11:40:12.352Z,18.83
2023-12-17T11:41:15.687Z,18.63
2023-12-17T11:42:19.110Z,20.15
2023-12-17T11:43:24.627Z,18.77
2023-12-17T11:44:26.775Z,20.27
2023-12-17T11:45:36.553Z,22.27
2023-12-17T11:46:38.739Z,15.68
2023-12-17T11:47:42.013Z,17.27
2023-12-17T11:48:44.324Z,20.27
2023-12-17T11:49:47.819Z,17.98
2023-12-17T11:50:52.187Z,18.30
2023-12-17T11:51:57.261Z,20.00
2023-12-17T11:53:02.827Z,18.23
2023-12-17T11:54:06.461Z,21.02
2023-12-17T11:55:08.892Z,20.88
2023-12-17T11:56:13.142Z,22.20
2023-12-17T11:57:19.886Z,19.23
2023-12-17T11:58:24.763Z,22.00
2023-12-17T11:59:33.365Z,16.10
2023-12-17T12:00:36.959Z,16.45
2023-12-17T12:01:39.431Z,17.67
2023-12-17T12:02:41.663Z,17.30
2023-12-17T12:03:45.318Z,20.02
2023-12-17T12:04:48.112Z,15.93
2023-12-17T12:05:51.737Z,18.17
2023-12-17T12:06:55.676Z,18.90
2023-12-17T12:07:58.969Z,20.00
2023-12-17T12:09:01.381Z,17.25
2023-12-17T12:10:12.028Z,17.40
2023-12-17T12:11:16.570Z,16.05
2023-12-17T12:12:21.221Z,15.65
2023-12-17T12:13:25.078Z,18.90
2023-12-17T12:14:28.928Z,18.83
2023-12-17T12:15:31.197Z,17.42
2023-12-17T12:16:41.328Z,15.23
2023-12-17T12:17:44.847Z,17.23
2023-12-17T12:18:48.293Z,21.77
2023-12-17T12:19:51.000Z,20.35
2023-12-17T12:20:54.840Z,21.15
2023-12-17T12:21:59.404Z,23.45
2023-12-17T12:23:01.592Z,20.05
2023-12-17T12:24:11.168Z,18.88
2023-12-17T12:25:22.356Z,16.40
2023-12-17T12:26:27.055Z,22.88
2023-12-17T12:27:29.473Z,20.75
2023-12-17T12:28:32.693Z,18.45
2023-12-17T12:29:36.765Z,19.08
2023-12-17T12:30:39.998Z,21.92
2023-12-17T12:31:51.645Z,17.27
2023-12-17T12:32:54.916Z,19.63
2023-12-17T12:34:00.539Z,17.98
2023-12-17T12:35:04.798Z,22.17
2023-12-17T12:36:08.686Z,18.30
2023-12-17T12:37:13.442Z,17.90
2023-12-17T12:40:02.951Z,25.13
2023-12-17T12:41:11.226Z,20.52
2023-12-17T12:42:18.978Z,18.15
2023-12-17T12:43:22.705Z,16.55
2023-12-17T12:44:25.978Z,17.48
2023-12-17T12:45:29.223Z,15.68
2023-12-17T12:46:34.683Z,17.10
2023-12-17T12:47:36.942Z,14.82
2023-12-17T12:48:41.256Z,17.63
2023-12-17T12:49:44.643Z,17.52
2023-12-17T12:50:47.195Z,15.73
2023-12-17T12:51:50.333Z,18.17
2023-12-17T12:52:52.484Z,18.35
2023-12-17T12:53:55.984Z,13.82
2023-12-17T12:54:59.417Z,16.55
2023-12-17T12:56:02.469Z,20.33
2023-12-17T12:57:05.817Z,20.25
2023-12-17T12:58:08.347Z,16.33
2023-12-17T12:59:22.586Z,17.30
2023-12-17T13:02:07.194Z,17.92
2023-12-17T13:03:10.702Z,17.67
2023-12-17T13:04:13.948Z,19.73
2023-12-17T13:05:16.278Z,14.57
2023-12-17T13:06:20.131Z,17.77
2023-12-17T13:07:22.311Z,16.77
2023-12-17T13:08:25.347Z,14.18
2023-12-17T13:09:27.871Z,16.30
2023-12-17T13:10:32.345Z,16.50
2023-12-17T13:11:34.510Z,17.35
2023-12-17T13:12:37.884Z,14.10
2023-12-17T13:13:40.065Z,15.50
2023-12-17T13:14:44.525Z,15.80
2023-12-17T13:15:46.685Z,16.45
2023-12-17T13:16:52.309Z,19.88
2023-12-17T13:17:56.109Z,17.48
2023-12-17T13:19:05.217Z,15.82
2023-12-17T13:20:14.162Z,17.60
2023-12-17T13:21:17.357Z,16.15
2023-12-17T13:22:19.738Z,17.70
2023-12-17T13:23:22.858Z,18.65
2023-12-17T13:24:25.515Z,15.77
2023-12-17T13:25:30.685Z,17.38
2023-12-17T13:26:34.118Z,17.27
2023-12-17T13:27:37.573Z,14.95
2023-12-17T13:28:39.715Z,15.68
2023-12-17T13:29:42.856Z,18.27
2023-12-17T13:30:45.121Z,18.30
2023-12-17T13:31:47.316Z,12.88
2023-12-17T13:32:50.634Z,18.02
2023-12-17T13:33:52.932Z,16.15
2023-12-17T13:34:56.012Z,18.52
2023-12-17T13:35:58.298Z,16.88
2023-12-17T13:37:01.339Z,14.63
2023-12-17T13:38:03.779Z,19.20
2023-12-17T13:39:06.142Z,20.75
2023-12-17T13:40:10.782Z,16.25
2023-12-17T13:41:12.843Z,16.50
2023-12-17T13:42:17.467Z,14.40
2023-12-17T13:43:19.622Z,17.08
2023-12-17T13:44:22.760Z,15.82
2023-12-17T13:45:25.232Z,20.25
2023-12-17T13:46:28.306Z,17.85
2023-12-17T13:47:30.515Z,19.23
2023-12-17T13:48:34.774Z,19.70
2023-12-17T13:49:37.328Z,15.30
2023-12-17T13:50:41.294Z,17.65